sensor_id;sensor_type;location;lat;lon;timestamp;P1;durP1;ratioP1;P2;durP2;ratioP2
57329;SDS011;43163;51.032;18.280;2023-05-17T00:07:55;36.30;;;20.00;;
57329;SDS011;43163;51.032;18.280;2023-05-17T00:17:47;22.40;;;14.00;;
57329;SDS011;43163;51.032;18.280;2023-05-17T00:27:41;30.30;;;16.00;;
57329;SDS011;43163;51.032;18.280;2023-05-17T00:37:32;29.30;;;17.90;;
57329;SDS011;43163;51.032;18.280;2023-05-17T00:47:24;24.50;;;16.00;;
57329;SDS011;43163;51.032;18.280;2023-05-17T00:57:16;29.30;;;18.40;;
57329;SDS011;43163;51.032;18.280;2023-05-17T01:07:07;27.50;;;16.60;;
57329;SDS011;43163;51.032;18.280;2023-05-17T01:28:18;16.50;;;12.70;;
57329;SDS011;43163;51.032;18.280;2023-05-17T01:38:15;28.00;;;16.00;;
57329;SDS011;43163;51.032;18.280;2023-05-17T01:48:38;15.60;;;8.30;;
57329;SDS011;43163;51.032;18.280;2023-05-17T01:58:47;22.50;;;15.40;;
57329;SDS011;43163;51.032;18.280;2023-05-17T02:08:48;20.60;;;12.70;;
57329;SDS011;43163;51.032;18.280;2023-05-17T02:18:40;21.00;;;13.60;;
57329;SDS011;43163;51.032;18.280;2023-05-17T02:28:33;48.30;;;17.50;;
57329;SDS011;43163;51.032;18.280;2023-05-17T02:38:25;27.90;;;14.90;;
57329;SDS011;43163;51.032;18.280;2023-05-17T02:48:16;20.50;;;14.90;;
57329;SDS011;43163;51.032;18.280;2023-05-17T02:58:06;25.80;;;16.20;;
57329;SDS011;43163;51.032;18.280;2023-05-17T03:07:57;21.60;;;15.00;;
57329;SDS011;43163;51.032;18.280;2023-05-17T03:17:49;29.20;;;16.10;;
57329;SDS011;43163;51.032;18.280;2023-05-17T03:27:39;12.40;;;9.10;;
57329;SDS011;43163;51.032;18.280;2023-05-17T03:37:29;19.20;;;13.10;;
57329;SDS011;43163;51.032;18.280;2023-05-17T03:47:20;20.80;;;13.70;;
57329;SDS011;43163;51.032;18.280;2023-05-17T04:04:36;24.70;;;16.30;;
57329;SDS011;43163;51.032;18.280;2023-05-17T04:14:30;22.10;;;14.30;;
57329;SDS011;43163;51.032;18.280;2023-05-17T04:24:21;31.70;;;15.50;;
57329;SDS011;43163;51.032;18.280;2023-05-17T04:34:16;33.90;;;16.20;;
57329;SDS011;43163;51.032;18.280;2023-05-17T05:27:31;16.30;;;11.30;;
57329;SDS011;43163;51.032;18.280;2023-05-17T05:37:24;19.30;;;12.50;;
57329;SDS011;43163;51.032;18.280;2023-05-17T05:47:14;29.40;;;14.40;;
57329;SDS011;43163;51.032;18.280;2023-05-17T05:57:04;26.20;;;16.20;;
57329;SDS011;43163;51.032;18.280;2023-05-17T06:06:56;38.50;;;16.40;;
57329;SDS011;43163;51.032;18.280;2023-05-17T06:16:47;25.60;;;17.00;;
57329;SDS011;43163;51.032;18.280;2023-05-17T06:26:37;20.30;;;12.70;;
57329;SDS011;43163;51.032;18.280;2023-05-17T06:36:28;12.00;;;9.20;;
57329;SDS011;43163;51.032;18.280;2023-05-17T06:46:18;17.50;;;11.60;;
57329;SDS011;43163;51.032;18.280;2023-05-17T06:56:08;17.00;;;11.20;;
57329;SDS011;43163;51.032;18.280;2023-05-17T07:05:57;16.10;;;8.10;;
57329;SDS011;43163;51.032;18.280;2023-05-17T07:15:48;13.60;;;8.30;;
57329;SDS011;43163;51.032;18.280;2023-05-17T07:33:02;14.20;;;7.60;;
57329;SDS011;43163;51.032;18.280;2023-05-17T07:42:52;10.30;;;4.90;;
57329;SDS011;43163;51.032;18.280;2023-05-17T07:52:40;7.10;;;5.20;;
57329;SDS011;43163;51.032;18.280;2023-05-17T08:02:30;7.70;;;4.40;;
57329;SDS011;43163;51.032;18.280;2023-05-17T08:19:43;4.90;;;3.70;;
57329;SDS011;43163;51.032;18.280;2023-05-17T08:29:34;9.80;;;4.60;;
57329;SDS011;43163;51.032;18.280;2023-05-17T08:39:25;9.30;;;3.80;;
57329;SDS011;43163;51.032;18.280;2023-05-17T08:49:21;6.50;;;4.40;;
57329;SDS011;43163;51.032;18.280;2023-05-17T08:59:19;5.30;;;3.10;;
57329;SDS011;43163;51.032;18.280;2023-05-17T09:09:13;8.10;;;3.30;;
57329;SDS011;43163;51.032;18.280;2023-05-17T09:19:04;7.50;;;3.40;;
57329;SDS011;43163;51.032;18.280;2023-05-17T09:29:11;3.30;;;2.30;;
57329;SDS011;43163;51.032;18.280;2023-05-17T09:39:10;3.90;;;3.40;;
57329;SDS011;43163;51.032;18.280;2023-05-17T09:49:08;5.50;;;3.70;;
57329;SDS011;43163;51.032;18.280;2023-05-17T09:59:02;12.80;;;2.40;;
57329;SDS011;43163;51.032;18.280;2023-05-17T10:08:57;6.70;;;2.80;;
57329;SDS011;43163;51.032;18.280;2023-05-17T10:19:05;6.50;;;3.80;;
57329;SDS011;43163;51.032;18.280;2023-05-17T10:28:59;9.90;;;2.70;;
57329;SDS011;43163;51.032;18.280;2023-05-17T11:31:31;7.40;;;3.90;;
57329;SDS011;43163;51.032;18.280;2023-05-17T11:41:38;11.70;;;4.10;;
57329;SDS011;43163;51.032;18.280;2023-05-17T11:51:32;14.40;;;4.20;;
57329;SDS011;43163;51.032;18.280;2023-05-17T12:01:46;5.30;;;3.60;;
57329;SDS011;43163;51.032;18.280;2023-05-17T12:11:52;4.20;;;3.20;;
57329;SDS011;43163;51.032;18.280;2023-05-17T12:21:48;9.40;;;3.90;;
57329;SDS011;43163;51.032;18.280;2023-05-17T12:31:44;3.70;;;2.50;;
57329;SDS011;43163;51.032;18.280;2023-05-17T12:41:38;12.50;;;3.80;;
57329;SDS011;43163;51.032;18.280;2023-05-17T12:51:43;5.10;;;2.90;;
57329;SDS011;43163;51.032;18.280;2023-05-17T13:01:55;7.20;;;3.20;;
57329;SDS011;43163;51.032;18.280;2023-05-17T13:22:17;13.10;;;6.30;;
57329;SDS011;43163;51.032;18.280;2023-05-17T13:32:09;7.00;;;5.10;;
57329;SDS011;43163;51.032;18.280;2023-05-17T13:42:01;6.30;;;3.90;;
57329;SDS011;43163;51.032;18.280;2023-05-17T13:51:51;5.60;;;3.40;;
57329;SDS011;43163;51.032;18.280;2023-05-17T14:01:43;8.70;;;3.90;;
57329;SDS011;43163;51.032;18.280;2023-05-17T14:11:34;4.60;;;1.50;;
57329;SDS011;43163;51.032;18.280;2023-05-17T14:21:26;8.70;;;3.80;;
57329;SDS011;43163;51.032;18.280;2023-05-17T14:31:15;15.60;;;5.20;;
57329;SDS011;43163;51.032;18.280;2023-05-17T14:41:05;15.10;;;4.80;;
57329;SDS011;43163;51.032;18.280;2023-05-17T14:50:54;3.10;;;2.40;;
57329;SDS011;43163;51.032;18.280;2023-05-17T15:00:52;3.80;;;3.00;;
57329;SDS011;43163;51.032;18.280;2023-05-17T15:10:49;11.60;;;3.50;;
57329;SDS011;43163;51.032;18.280;2023-05-17T15:20:41;19.00;;;3.60;;
57329;SDS011;43163;51.032;18.280;2023-05-17T15:30:32;10.00;;;4.00;;
57329;SDS011;43163;51.032;18.280;2023-05-17T15:40:23;9.20;;;4.10;;
57329;SDS011;43163;51.032;18.280;2023-05-17T15:50:17;2.80;;;2.60;;
57329;SDS011;43163;51.032;18.280;2023-05-17T16:00:09;7.50;;;2.40;;
57329;SDS011;43163;51.032;18.280;2023-05-17T16:09:59;12.50;;;4.50;;
57329;SDS011;43163;51.032;18.280;2023-05-17T16:19:50;9.70;;;4.20;;
57329;SDS011;43163;51.032;18.280;2023-05-17T16:37:01;8.40;;;3.70;;
57329;SDS011;43163;51.032;18.280;2023-05-17T17:28:25;6.30;;;3.50;;
57329;SDS011;43163;51.032;18.280;2023-05-17T17:38:15;0.70;;;0.70;;
57329;SDS011;43163;51.032;18.280;2023-05-17T17:48:04;1.60;;;1.50;;
57329;SDS011;43163;51.032;18.280;2023-05-17T17:57:53;12.00;;;6.40;;
57329;SDS011;43163;51.032;18.280;2023-05-17T18:07:42;12.50;;;6.30;;
57329;SDS011;43163;51.032;18.280;2023-05-17T18:17:32;8.60;;;4.90;;
57329;SDS011;43163;51.032;18.280;2023-05-17T18:27:22;16.00;;;6.20;;
57329;SDS011;43163;51.032;18.280;2023-05-17T18:44:32;6.00;;;4.10;;
57329;SDS011;43163;51.032;18.280;2023-05-17T18:54:21;16.10;;;7.80;;
57329;SDS011;43163;51.032;18.280;2023-05-17T19:04:12;5.90;;;5.20;;
57329;SDS011;43163;51.032;18.280;2023-05-17T19:14:02;13.80;;;7.00;;
57329;SDS011;43163;51.032;18.280;2023-05-17T19:23:55;22.70;;;7.70;;
57329;SDS011;43163;51.032;18.280;2023-05-17T19:33:44;16.40;;;8.00;;
57329;SDS011;43163;51.032;18.280;2023-05-17T19:43:34;9.10;;;6.10;;
57329;SDS011;43163;51.032;18.280;2023-05-17T19:53:32;10.10;;;7.50;;
57329;SDS011;43163;51.032;18.280;2023-05-17T20:03:28;14.80;;;8.50;;
57329;SDS011;43163;51.032;18.280;2023-05-17T20:13:19;8.10;;;6.10;;
57329;SDS011;43163;51.032;18.280;2023-05-17T20:23:13;21.30;;;7.30;;
57329;SDS011;43163;51.032;18.280;2023-05-17T20:33:01;11.20;;;5.30;;
57329;SDS011;43163;51.032;18.280;2023-05-17T20:42:51;8.00;;;4.50;;
57329;SDS011;43163;51.032;18.280;2023-05-17T20:52:42;9.60;;;5.40;;
57329;SDS011;43163;51.032;18.280;2023-05-17T21:02:33;10.60;;;6.00;;
57329;SDS011;43163;51.032;18.280;2023-05-17T21:12:23;11.10;;;6.30;;
57329;SDS011;43163;51.032;18.280;2023-05-17T21:22:15;16.80;;;7.20;;
57329;SDS011;43163;51.032;18.280;2023-05-17T21:32:06;15.70;;;6.90;;
57329;SDS011;43163;51.032;18.280;2023-05-17T21:41:56;13.30;;;5.70;;
57329;SDS011;43163;51.032;18.280;2023-05-17T21:51:45;13.40;;;6.90;;
57329;SDS011;43163;51.032;18.280;2023-05-17T22:01:36;8.70;;;5.00;;
57329;SDS011;43163;51.032;18.280;2023-05-17T22:11:26;17.10;;;8.20;;
57329;SDS011;43163;51.032;18.280;2023-05-17T22:21:26;20.00;;;6.70;;
57329;SDS011;43163;51.032;18.280;2023-05-17T22:31:17;18.70;;;6.10;;
57329;SDS011;43163;51.032;18.280;2023-05-17T23:28:40;9.60;;;4.70;;
57329;SDS011;43163;51.032;18.280;2023-05-17T23:38:31;7.40;;;2.40;;
57329;SDS011;43163;51.032;18.280;2023-05-17T23:48:21;5.10;;;3.80;;
57329;SDS011;43163;51.032;18.280;2023-05-17T23:58:13;25.80;;;3.60;;
